sensor_id;sensor_type;location;lat;lon;timestamp;pressure;altitude;pressure_sealevel;temperature;humidity
19236;BME280;9752;54.270;12.470;2023-02-04T00:03:06;102787.47;;;1.60;100.00
19236;BME280;9752;54.270;12.470;2023-02-04T00:08:08;102805.59;;;1.69;100.00
19236;BME280;9752;54.270;12.470;2023-02-04T00:13:11;102817.41;;;1.81;100.00
19236;BME280;9752;54.270;12.470;2023-02-04T00:18:13;102829.88;;;1.85;100.00
19236;BME280;9752;54.270;12.470;2023-02-04T00:23:15;102840.78;;;1.77;100.00
19236;BME280;9752;54.270;12.470;2023-02-04T00:28:18;102860.97;;;1.68;100.00
19236;BME280;9752;54.270;12.470;2023-02-04T00:33:21;102888.00;;;1.46;100.00
19236;BME280;9752;54.270;12.470;2023-02-04T00:38:22;102913.81;;;1.55;100.00
19236;BME280;9752;54.270;12.470;2023-02-04T00:43:25;102923.69;;;1.72;100.00
19236;BME280;9752;54.270;12.470;2023-02-04T00:48:27;102930.56;;;1.86;100.00
19236;BME280;9752;54.270;12.470;2023-02-04T00:53:29;102937.22;;;1.91;100.00
19236;BME280;9752;54.270;12.470;2023-02-04T00:58:32;102946.00;;;1.73;100.00
19236;BME280;9752;54.270;12.470;2023-02-04T01:03:34;102961.13;;;1.39;100.00
19236;BME280;9752;54.270;12.470;2023-02-04T01:08:36;102968.41;;;1.23;100.00
19236;BME280;9752;54.270;12.470;2023-02-04T01:13:39;102983.94;;;1.37;100.00
19236;BME280;9752;54.270;12.470;2023-02-04T01:18:40;103010.63;;;1.52;100.00
19236;BME280;9752;54.270;12.470;2023-02-04T01:23:42;103018.47;;;1.66;100.00
19236;BME280;9752;54.270;12.470;2023-02-04T01:28:45;103033.91;;;1.73;100.00
19236;BME280;9752;54.270;12.470;2023-02-04T01:33:47;103029.91;;;1.75;100.00
19236;BME280;9752;54.270;12.470;2023-02-04T01:38:49;103043.50;;;1.82;100.00
19236;BME280;9752;54.270;12.470;2023-02-04T01:43:52;103044.22;;;1.81;100.00
19236;BME280;9752;54.270;12.470;2023-02-04T01:48:54;103058.84;;;1.82;100.00
19236;BME280;9752;54.270;12.470;2023-02-04T01:53:56;103064.16;;;1.83;100.00
19236;BME280;9752;54.270;12.470;2023-02-04T01:58:59;103072.88;;;1.78;100.00
19236;BME280;9752;54.270;12.470;2023-02-04T02:04:01;103072.97;;;1.72;100.00
19236;BME280;9752;54.270;12.470;2023-02-04T02:09:03;103076.97;;;1.83;100.00
19236;BME280;9752;54.270;12.470;2023-02-04T02:14:07;103090.66;;;1.84;100.00
19236;BME280;9752;54.270;12.470;2023-02-04T02:19:11;103091.63;;;1.84;100.00
19236;BME280;9752;54.270;12.470;2023-02-04T02:24:26;103120.25;;;1.82;100.00
19236;BME280;9752;54.270;12.470;2023-02-04T02:29:28;103132.13;;;1.81;100.00
19236;BME280;9752;54.270;12.470;2023-02-04T02:34:30;103136.56;;;1.82;100.00
19236;BME280;9752;54.270;12.470;2023-02-04T02:39:35;103146.78;;;1.82;100.00
19236;BME280;9752;54.270;12.470;2023-02-04T02:44:37;103158.44;;;1.80;100.00
19236;BME280;9752;54.270;12.470;2023-02-04T02:49:38;103170.53;;;1.81;100.00
19236;BME280;9752;54.270;12.470;2023-02-04T02:54:43;103185.88;;;1.81;100.00
19236;BME280;9752;54.270;12.470;2023-02-04T02:59:47;103190.28;;;1.82;100.00
19236;BME280;9752;54.270;12.470;2023-02-04T03:04:51;103199.38;;;1.67;100.00
19236;BME280;9752;54.270;12.470;2023-02-04T03:09:59;103214.38;;;1.46;100.00
19236;BME280;9752;54.270;12.470;2023-02-04T03:15:02;103224.59;;;1.46;100.00
19236;BME280;9752;54.270;12.470;2023-02-04T03:20:05;103232.38;;;1.40;100.00
19236;BME280;9752;54.270;12.470;2023-02-04T03:25:08;103249.13;;;1.25;100.00
19236;BME280;9752;54.270;12.470;2023-02-04T03:30:10;103267.34;;;1.03;100.00
19236;BME280;9752;54.270;12.470;2023-02-04T03:35:12;103275.22;;;0.86;100.00
19236;BME280;9752;54.270;12.470;2023-02-04T03:40:15;103289.81;;;0.68;100.00
19236;BME280;9752;54.270;12.470;2023-02-04T03:45:18;103298.09;;;0.54;100.00
19236;BME280;9752;54.270;12.470;2023-02-04T03:50:20;103310.06;;;0.43;100.00
19236;BME280;9752;54.270;12.470;2023-02-04T03:55:23;103319.75;;;0.27;100.00
19236;BME280;9752;54.270;12.470;2023-02-04T04:00:25;103333.59;;;0.10;100.00
19236;BME280;9752;54.270;12.470;2023-02-04T04:05:27;103358.56;;;0.18;100.00
19236;BME280;9752;54.270;12.470;2023-02-04T04:10:30;103368.34;;;0.39;100.00
19236;BME280;9752;54.270;12.470;2023-02-04T04:15:31;103370.56;;;0.49;100.00
19236;BME280;9752;54.270;12.470;2023-02-04T04:20:33;103380.03;;;0.56;100.00
19236;BME280;9752;54.270;12.470;2023-02-04T04:25:36;103402.75;;;0.60;100.00
19236;BME280;9752;54.270;12.470;2023-02-04T04:30:38;103406.72;;;0.58;100.00
19236;BME280;9752;54.270;12.470;2023-02-04T04:35:40;103425.91;;;0.67;100.00
19236;BME280;9752;54.270;12.470;2023-02-04T04:40:43;103434.53;;;0.86;100.00
19236;BME280;9752;54.270;12.470;2023-02-04T04:45:44;103433.81;;;0.87;100.00
19236;BME280;9752;54.270;12.470;2023-02-04T04:50:46;103449.44;;;0.83;100.00
19236;BME280;9752;54.270;12.470;2023-02-04T04:55:49;103461.63;;;0.73;100.00
19236;BME280;9752;54.270;12.470;2023-02-04T05:00:50;103476.72;;;0.71;100.00
19236;BME280;9752;54.270;12.470;2023-02-04T05:05:52;103493.13;;;0.79;100.00
19236;BME280;9752;54.270;12.470;2023-02-04T05:10:55;103505.63;;;0.83;100.00
19236;BME280;9752;54.270;12.470;2023-02-04T05:15:57;103522.34;;;0.87;100.00
19236;BME280;9752;54.270;12.470;2023-02-04T05:20:58;103525.56;;;0.91;100.00
19236;BME280;9752;54.270;12.470;2023-02-04T05:26:01;103541.03;;;0.98;100.00
19236;BME280;9752;54.270;12.470;2023-02-04T05:31:03;103541.31;;;0.94;100.00
19236;BME280;9752;54.270;12.470;2023-02-04T05:36:05;103557.13;;;0.92;100.00
19236;BME280;9752;54.270;12.470;2023-02-04T05:41:08;103561.53;;;0.93;100.00
19236;BME280;9752;54.270;12.470;2023-02-04T05:46:10;103566.00;;;0.88;100.00
19236;BME280;9752;54.270;12.470;2023-02-04T05:51:11;103563.22;;;0.87;100.00
19236;BME280;9752;54.270;12.470;2023-02-04T05:56:14;103550.22;;;0.85;100.00
19236;BME280;9752;54.270;12.470;2023-02-04T06:01:16;103553.53;;;0.78;100.00
19236;BME280;9752;54.270;12.470;2023-02-04T06:06:18;103560.41;;;0.61;100.00
19236;BME280;9752;54.270;12.470;2023-02-04T06:11:21;103568.00;;;0.31;100.00
19236;BME280;9752;54.270;12.470;2023-02-04T06:16:22;103590.34;;;0.27;100.00
19236;BME280;9752;54.270;12.470;2023-02-04T06:21:24;103602.38;;;0.28;100.00
19236;BME280;9752;54.270;12.470;2023-02-04T06:26:27;103605.78;;;0.39;100.00
19236;BME280;9752;54.270;12.470;2023-02-04T06:31:29;103620.19;;;0.39;100.00
19236;BME280;9752;54.270;12.470;2023-02-04T06:36:31;103637.81;;;0.43;100.00
19236;BME280;9752;54.270;12.470;2023-02-04T06:41:34;103653.16;;;0.37;100.00
19236;BME280;9752;54.270;12.470;2023-02-04T06:46:35;103652.22;;;0.37;100.00
19236;BME280;9752;54.270;12.470;2023-02-04T06:51:37;103652.31;;;0.20;100.00
19236;BME280;9752;54.270;12.470;2023-02-04T06:56:40;103661.66;;;0.03;100.00
19236;BME280;9752;54.270;12.470;2023-02-04T07:01:42;103680.69;;;-0.07;100.00
19236;BME280;9752;54.270;12.470;2023-02-04T07:06:44;103692.78;;;-0.06;100.00
19236;BME280;9752;54.270;12.470;2023-02-04T07:11:47;103717.81;;;-0.03;100.00
19236;BME280;9752;54.270;12.470;2023-02-04T07:16:49;103726.59;;;0.10;100.00
19236;BME280;9752;54.270;12.470;2023-02-04T07:21:50;103740.50;;;0.18;100.00
19236;BME280;9752;54.270;12.470;2023-02-04T07:26:57;103748.59;;;0.27;100.00
19236;BME280;9752;54.270;12.470;2023-02-04T07:31:58;103763.69;;;0.19;100.00
19236;BME280;9752;54.270;12.470;2023-02-04T07:37:00;103778.53;;;0.28;100.00
19236;BME280;9752;54.270;12.470;2023-02-04T07:42:03;103774.34;;;0.28;100.00
19236;BME280;9752;54.270;12.470;2023-02-04T07:47:12;103774.81;;;0.31;100.00
19236;BME280;9752;54.270;12.470;2023-02-04T07:52:14;103775.94;;;0.39;100.00
19236;BME280;9752;54.270;12.470;2023-02-04T07:57:17;103781.00;;;0.56;100.00
19236;BME280;9752;54.270;12.470;2023-02-04T08:02:19;103782.56;;;0.78;100.00
19236;BME280;9752;54.270;12.470;2023-02-04T08:07:20;103784.81;;;0.93;100.00
19236;BME280;9752;54.270;12.470;2023-02-04T08:12:23;103788.44;;;1.12;100.00
19236;BME280;9752;54.270;12.470;2023-02-04T08:17:25;103785.81;;;1.24;100.00
19236;BME280;9752;54.270;12.470;2023-02-04T08:22:27;103784.81;;;1.29;100.00
19236;BME280;9752;54.270;12.470;2023-02-04T08:27:30;103788.22;;;1.46;100.00
19236;BME280;9752;54.270;12.470;2023-02-04T08:32:31;103800.28;;;1.47;100.00
19236;BME280;9752;54.270;12.470;2023-02-04T08:37:33;103807.41;;;1.26;100.00
19236;BME280;9752;54.270;12.470;2023-02-04T08:42:36;103803.81;;;1.01;100.00
19236;BME280;9752;54.270;12.470;2023-02-04T08:47:38;103815.97;;;0.80;100.00
19236;BME280;9752;54.270;12.470;2023-02-04T08:52:39;103823.94;;;0.58;100.00
19236;BME280;9752;54.270;12.470;2023-02-04T08:57:42;103823.94;;;0.53;100.00
19236;BME280;9752;54.270;12.470;2023-02-04T09:02:44;103821.84;;;0.62;100.00
19236;BME280;9752;54.270;12.470;2023-02-04T09:07:46;103817.78;;;0.92;100.00
19236;BME280;9752;54.270;12.470;2023-02-04T09:12:49;103817.91;;;1.22;100.00
19236;BME280;9752;54.270;12.470;2023-02-04T09:17:55;103828.06;;;1.63;100.00
19236;BME280;9752;54.270;12.470;2023-02-04T09:23:03;103832.94;;;1.97;100.00
19236;BME280;9752;54.270;12.470;2023-02-04T09:28:10;103825.16;;;2.74;100.00
19236;BME280;9752;54.270;12.470;2023-02-04T09:33:13;103832.81;;;2.56;100.00
19236;BME280;9752;54.270;12.470;2023-02-04T09:38:16;103841.34;;;1.95;100.00
19236;BME280;9752;54.270;12.470;2023-02-04T09:43:21;103841.41;;;1.90;100.00
19236;BME280;9752;54.270;12.470;2023-02-04T09:48:24;103848.31;;;1.97;100.00
19236;BME280;9752;54.270;12.470;2023-02-04T09:53:28;103854.66;;;1.58;100.00
19236;BME280;9752;54.270;12.470;2023-02-04T09:58:32;103851.09;;;1.63;100.00
19236;BME280;9752;54.270;12.470;2023-02-04T10:03:35;103851.75;;;1.73;100.00
19236;BME280;9752;54.270;12.470;2023-02-04T10:08:39;103853.72;;;1.87;100.00
19236;BME280;9752;54.270;12.470;2023-02-04T10:13:45;103857.34;;;1.70;100.00
19236;BME280;9752;54.270;12.470;2023-02-04T10:18:49;103860.53;;;1.81;100.00
19236;BME280;9752;54.270;12.470;2023-02-04T10:23:54;103867.44;;;1.87;100.00
19236;BME280;9752;54.270;12.470;2023-02-04T10:28:59;103860.22;;;2.20;100.00
19236;BME280;9752;54.270;12.470;2023-02-04T10:34:02;103858.03;;;2.53;100.00
19236;BME280;9752;54.270;12.470;2023-02-04T10:39:08;103863.69;;;1.91;100.00
19236;BME280;9752;54.270;12.470;2023-02-04T10:44:13;103875.88;;;1.45;100.00
19236;BME280;9752;54.270;12.470;2023-02-04T10:49:18;103879.31;;;1.51;100.00
19236;BME280;9752;54.270;12.470;2023-02-04T10:54:22;103881.94;;;2.11;100.00
19236;BME280;9752;54.270;12.470;2023-02-04T10:59:32;103889.91;;;1.71;100.00
19236;BME280;9752;54.270;12.470;2023-02-04T11:04:35;103899.91;;;1.70;100.00
19236;BME280;9752;54.270;12.470;2023-02-04T11:09:39;103897.13;;;2.04;100.00
19236;BME280;9752;54.270;12.470;2023-02-04T11:14:53;103889.84;;;2.37;100.00
19236;BME280;9752;54.270;12.470;2023-02-04T11:19:55;103908.75;;;1.72;100.00
19236;BME280;9752;54.270;12.470;2023-02-04T11:24:57;103896.88;;;1.31;100.00
19236;BME280;9752;54.270;12.470;2023-02-04T11:30:06;103904.63;;;1.55;100.00
19236;BME280;9752;54.270;12.470;2023-02-04T11:35:23;103900.03;;;1.88;100.00
19236;BME280;9752;54.270;12.470;2023-02-04T11:40:29;103912.31;;;1.55;100.00
19236;BME280;9752;54.270;12.470;2023-02-04T11:45:34;103924.66;;;1.52;100.00
19236;BME280;9752;54.270;12.470;2023-02-04T11:50:36;103931.69;;;1.83;100.00
19236;BME280;9752;54.270;12.470;2023-02-04T11:55:44;103938.28;;;1.70;100.00
19236;BME280;9752;54.270;12.470;2023-02-04T12:00:49;103931.06;;;2.08;100.00
19236;BME280;9752;54.270;12.470;2023-02-04T12:05:51;103938.78;;;1.67;100.00
19236;BME280;9752;54.270;12.470;2023-02-04T12:11:01;103943.84;;;1.26;100.00
19236;BME280;9752;54.270;12.470;2023-02-04T12:16:06;103949.53;;;0.95;100.00
19236;BME280;9752;54.270;12.470;2023-02-04T12:21:08;103956.13;;;1.29;100.00
19236;BME280;9752;54.270;12.470;2023-02-04T12:26:10;103949.75;;;0.97;100.00
19236;BME280;9752;54.270;12.470;2023-02-04T12:31:13;103961.81;;;0.92;100.00
19236;BME280;9752;54.270;12.470;2023-02-04T12:36:14;103956.72;;;0.92;100.00
19236;BME280;9752;54.270;12.470;2023-02-04T12:41:16;103963.19;;;1.07;100.00
19236;BME280;9752;54.270;12.470;2023-02-04T12:46:20;103960.44;;;0.94;100.00
19236;BME280;9752;54.270;12.470;2023-02-04T12:51:22;103963.22;;;0.85;100.00
19236;BME280;9752;54.270;12.470;2023-02-04T12:56:24;103980.44;;;0.91;100.00
19236;BME280;9752;54.270;12.470;2023-02-04T13:01:27;103971.13;;;0.86;100.00
19236;BME280;9752;54.270;12.470;2023-02-04T13:06:29;103977.66;;;0.73;100.00
19236;BME280;9752;54.270;12.470;2023-02-04T13:11:30;103986.97;;;0.72;100.00
19236;BME280;9752;54.270;12.470;2023-02-04T13:16:34;103999.00;;;0.90;100.00
19236;BME280;9752;54.270;12.470;2023-02-04T13:21:35;103990.19;;;0.71;100.00
19236;BME280;9752;54.270;12.470;2023-02-04T13:26:37;104007.16;;;0.65;100.00
19236;BME280;9752;54.270;12.470;2023-02-04T13:31:40;104010.19;;;0.51;100.00
19236;BME280;9752;54.270;12.470;2023-02-04T13:36:42;104001.31;;;0.44;100.00
19236;BME280;9752;54.270;12.470;2023-02-04T13:41:43;104019.00;;;0.36;100.00
19236;BME280;9752;54.270;12.470;2023-02-04T13:46:46;104020.78;;;0.21;100.00
19236;BME280;9752;54.270;12.470;2023-02-04T13:51:48;104028.22;;;0.08;100.00
19236;BME280;9752;54.270;12.470;2023-02-04T13:56:50;104023.56;;;0.11;100.00
19236;BME280;9752;54.270;12.470;2023-02-04T14:01:53;104028.22;;;0.13;100.00
19236;BME280;9752;54.270;12.470;2023-02-04T14:06:55;104028.22;;;0.08;100.00
19236;BME280;9752;54.270;12.470;2023-02-04T14:11:56;104021.91;;;-0.06;100.00
19236;BME280;9752;54.270;12.470;2023-02-04T14:16:59;104023.47;;;-0.17;100.00
19236;BME280;9752;54.270;12.470;2023-02-04T14:22:01;104016.97;;;-0.21;100.00
19236;BME280;9752;54.270;12.470;2023-02-04T14:27:03;104023.00;;;-0.26;100.00
19236;BME280;9752;54.270;12.470;2023-02-04T14:32:08;104029.47;;;-0.28;100.00
19236;BME280;9752;54.270;12.470;2023-02-04T14:37:10;104031.94;;;-0.45;100.00
19236;BME280;9752;54.270;12.470;2023-02-04T14:42:12;104033.72;;;-0.55;100.00
19236;BME280;9752;54.270;12.470;2023-02-04T14:47:15;104029.97;;;-0.63;100.00
19236;BME280;9752;54.270;12.470;2023-02-04T14:52:17;104037.63;;;-0.63;100.00
19236;BME280;9752;54.270;12.470;2023-02-04T14:57:19;104047.34;;;-0.72;100.00
19236;BME280;9752;54.270;12.470;2023-02-04T15:02:22;104060.66;;;-0.84;100.00
19236;BME280;9752;54.270;12.470;2023-02-04T15:07:23;104065.72;;;-0.90;100.00
19236;BME280;9752;54.270;12.470;2023-02-04T15:12:25;104064.72;;;-1.02;100.00
19236;BME280;9752;54.270;12.470;2023-02-04T15:17:28;104074.50;;;-1.20;100.00
19236;BME280;9752;54.270;12.470;2023-02-04T15:22:30;104080.63;;;-1.35;100.00
19236;BME280;9752;54.270;12.470;2023-02-04T15:27:32;104078.41;;;-1.49;100.00
19236;BME280;9752;54.270;12.470;2023-02-04T15:32:35;104068.25;;;-1.70;100.00
19236;BME280;9752;54.270;12.470;2023-02-04T15:37:37;104076.47;;;-1.98;100.00
19236;BME280;9752;54.270;12.470;2023-02-04T15:42:38;104084.19;;;-2.28;100.00
19236;BME280;9752;54.270;12.470;2023-02-04T15:47:41;104084.22;;;-2.59;100.00
19236;BME280;9752;54.270;12.470;2023-02-04T15:52:43;104093.31;;;-2.86;100.00
19236;BME280;9752;54.270;12.470;2023-02-04T15:57:45;104101.47;;;-3.08;100.00
19236;BME280;9752;54.270;12.470;2023-02-04T16:02:48;104117.44;;;-3.19;100.00
19236;BME280;9752;54.270;12.470;2023-02-04T16:07:50;104117.00;;;-3.42;100.00
19236;BME280;9752;54.270;12.470;2023-02-04T16:12:52;104114.78;;;-3.75;100.00
19236;BME280;9752;54.270;12.470;2023-02-04T16:17:57;104122.22;;;-3.71;100.00
19236;BME280;9752;54.270;12.470;2023-02-04T16:22:59;104124.22;;;-3.74;100.00
19236;BME280;9752;54.270;12.470;2023-02-04T16:28:01;104134.75;;;-4.02;100.00
19236;BME280;9752;54.270;12.470;2023-02-04T16:33:04;104136.91;;;-4.19;100.00
19236;BME280;9752;54.270;12.470;2023-02-04T16:38:07;104147.06;;;-4.19;100.00
19236;BME280;9752;54.270;12.470;2023-02-04T16:43:08;104148.16;;;-4.42;100.00
19236;BME280;9752;54.270;12.470;2023-02-04T16:48:11;104164.91;;;-4.33;100.00
19236;BME280;9752;54.270;12.470;2023-02-04T16:53:13;104163.06;;;-4.34;100.00
19236;BME280;9752;54.270;12.470;2023-02-04T16:58:15;104159.06;;;-4.47;100.00
19236;BME280;9752;54.270;12.470;2023-02-04T17:03:19;104159.56;;;-4.83;100.00
19236;BME280;9752;54.270;12.470;2023-02-04T17:08:21;104171.66;;;-5.05;100.00
19236;BME280;9752;54.270;12.470;2023-02-04T17:13:22;104168.81;;;-5.17;100.00
19236;BME280;9752;54.270;12.470;2023-02-04T17:18:26;104174.94;;;-5.20;100.00
19236;BME280;9752;54.270;12.470;2023-02-04T17:23:28;104184.94;;;-5.16;100.00
19236;BME280;9752;54.270;12.470;2023-02-04T17:28:30;104190.88;;;-4.92;100.00
19236;BME280;9752;54.270;12.470;2023-02-04T17:33:33;104204.59;;;-4.86;100.00
19236;BME280;9752;54.270;12.470;2023-02-04T17:38:35;104209.31;;;-5.17;100.00
19236;BME280;9752;54.270;12.470;2023-02-04T17:43:37;104204.50;;;-5.25;100.00
19236;BME280;9752;54.270;12.470;2023-02-04T17:48:40;104203.13;;;-5.33;100.00
19236;BME280;9752;54.270;12.470;2023-02-04T17:53:41;104208.47;;;-5.31;100.00
19236;BME280;9752;54.270;12.470;2023-02-04T17:58:43;104220.97;;;-4.94;100.00
19236;BME280;9752;54.270;12.470;2023-02-04T18:03:46;104227.41;;;-5.29;100.00
19236;BME280;9752;54.270;12.470;2023-02-04T18:08:49;104228.06;;;-5.54;100.00
19236;BME280;9752;54.270;12.470;2023-02-04T18:13:51;104221.84;;;-5.70;100.00
19236;BME280;9752;54.270;12.470;2023-02-04T18:18:55;104218.94;;;-5.67;100.00
19236;BME280;9752;54.270;12.470;2023-02-04T18:24:05;104220.69;;;-5.38;100.00
19236;BME280;9752;54.270;12.470;2023-02-04T18:29:30;104225.22;;;-5.32;100.00
19236;BME280;9752;54.270;12.470;2023-02-04T18:34:36;104228.88;;;-5.25;100.00
19236;BME280;9752;54.270;12.470;2023-02-04T18:39:39;104223.19;;;-5.15;100.00
19236;BME280;9752;54.270;12.470;2023-02-04T18:44:41;104234.00;;;-5.06;100.00
19236;BME280;9752;54.270;12.470;2023-02-04T18:49:44;104243.38;;;-4.91;100.00
19236;BME280;9752;54.270;12.470;2023-02-04T18:54:49;104251.16;;;-4.76;100.00
19236;BME280;9752;54.270;12.470;2023-02-04T18:59:52;104255.41;;;-4.71;100.00
19236;BME280;9752;54.270;12.470;2023-02-04T19:04:56;104253.56;;;-4.72;100.00
19236;BME280;9752;54.270;12.470;2023-02-04T19:09:59;104269.25;;;-4.78;100.00
19236;BME280;9752;54.270;12.470;2023-02-04T19:15:08;104263.06;;;-4.61;100.00
19236;BME280;9752;54.270;12.470;2023-02-04T19:20:20;104277.41;;;-4.75;100.00
19236;BME280;9752;54.270;12.470;2023-02-04T19:25:26;104285.72;;;-5.00;100.00
19236;BME280;9752;54.270;12.470;2023-02-04T19:30:42;104295.13;;;-5.08;100.00
19236;BME280;9752;54.270;12.470;2023-02-04T19:35:47;104307.72;;;-4.95;100.00
19236;BME280;9752;54.270;12.470;2023-02-04T19:40:50;104305.13;;;-4.81;100.00
19236;BME280;9752;54.270;12.470;2023-02-04T19:45:53;104313.47;;;-4.86;100.00
19236;BME280;9752;54.270;12.470;2023-02-04T19:50:56;104333.28;;;-4.69;100.00
19236;BME280;9752;54.270;12.470;2023-02-04T19:55:58;104338.66;;;-4.58;100.00
19236;BME280;9752;54.270;12.470;2023-02-04T20:01:00;104347.00;;;-4.73;100.00
19236;BME280;9752;54.270;12.470;2023-02-04T20:06:27;104340.84;;;-5.03;100.00
19236;BME280;9752;54.270;12.470;2023-02-04T20:11:54;104338.59;;;-5.25;100.00
19236;BME280;9752;54.270;12.470;2023-02-04T20:16:58;104339.13;;;-5.45;100.00
19236;BME280;9752;54.270;12.470;2023-02-04T20:27:43;104324.19;;;-5.54;100.00
19236;BME280;9752;54.270;12.470;2023-02-04T20:32:46;104326.66;;;-5.77;100.00
19236;BME280;9752;54.270;12.470;2023-02-04T20:37:52;104325.31;;;-5.99;100.00
19236;BME280;9752;54.270;12.470;2023-02-04T20:42:56;104327.56;;;-6.00;100.00
19236;BME280;9752;54.270;12.470;2023-02-04T20:48:15;104322.63;;;-6.18;100.00
19236;BME280;9752;54.270;12.470;2023-02-04T20:53:27;104317.72;;;-6.26;100.00
19236;BME280;9752;54.270;12.470;2023-02-04T20:58:35;104315.69;;;-6.19;100.00
19236;BME280;9752;54.270;12.470;2023-02-04T21:03:37;104305.28;;;-6.35;100.00
19236;BME280;9752;54.270;12.470;2023-02-04T21:08:41;104306.22;;;-6.06;100.00
19236;BME280;9752;54.270;12.470;2023-02-04T21:13:45;104315.75;;;-6.10;100.00
19236;BME280;9752;54.270;12.470;2023-02-04T21:18:46;104310.25;;;-6.31;100.00
19236;BME280;9752;54.270;12.470;2023-02-04T21:23:50;104326.78;;;-6.51;100.00
19236;BME280;9752;54.270;12.470;2023-02-04T21:28:53;104326.03;;;-6.59;100.00
19236;BME280;9752;54.270;12.470;2023-02-04T21:33:54;104326.13;;;-6.36;100.00
19236;BME280;9752;54.270;12.470;2023-02-04T21:38:57;104320.88;;;-6.55;100.00
19236;BME280;9752;54.270;12.470;2023-02-04T21:44:00;104307.44;;;-6.60;100.00
19236;BME280;9752;54.270;12.470;2023-02-04T21:49:01;104298.97;;;-6.78;100.00
19236;BME280;9752;54.270;12.470;2023-02-04T21:54:04;104295.22;;;-6.80;100.00
19236;BME280;9752;54.270;12.470;2023-02-04T21:59:07;104303.72;;;-6.80;100.00
19236;BME280;9752;54.270;12.470;2023-02-04T22:04:09;104302.78;;;-6.80;100.00
19236;BME280;9752;54.270;12.470;2023-02-04T22:09:11;104294.66;;;-6.83;100.00
19236;BME280;9752;54.270;12.470;2023-02-04T22:14:14;104310.28;;;-6.62;100.00
19236;BME280;9752;54.270;12.470;2023-02-04T22:19:33;104312.66;;;-6.26;100.00
19236;BME280;9752;54.270;12.470;2023-02-04T22:24:34;104312.69;;;-5.99;100.00
19236;BME280;9752;54.270;12.470;2023-02-04T22:29:38;104318.16;;;-5.92;100.00
19236;BME280;9752;54.270;12.470;2023-02-04T22:34:39;104311.50;;;-5.91;100.00
19236;BME280;9752;54.270;12.470;2023-02-04T22:39:42;104294.47;;;-5.92;100.00
19236;BME280;9752;54.270;12.470;2023-02-04T22:44:46;104290.03;;;-5.79;100.00
19236;BME280;9752;54.270;12.470;2023-02-04T22:49:48;104282.94;;;-5.49;100.00
19236;BME280;9752;54.270;12.470;2023-02-04T22:54:50;104304.63;;;-5.31;100.00
19236;BME280;9752;54.270;12.470;2023-02-04T22:59:53;104313.91;;;-5.12;100.00
19236;BME280;9752;54.270;12.470;2023-02-04T23:04:55;104296.88;;;-5.03;100.00
19236;BME280;9752;54.270;12.470;2023-02-04T23:09:57;104300.41;;;-4.93;100.00
19236;BME280;9752;54.270;12.470;2023-02-04T23:15:00;104313.28;;;-4.78;100.00
19236;BME280;9752;54.270;12.470;2023-02-04T23:20:02;104318.72;;;-4.71;100.00
19236;BME280;9752;54.270;12.470;2023-02-04T23:25:05;104326.25;;;-4.57;100.00
19236;BME280;9752;54.270;12.470;2023-02-04T23:30:10;104323.19;;;-4.50;100.00
19236;BME280;9752;54.270;12.470;2023-02-04T23:35:12;104330.56;;;-4.42;100.00
19236;BME280;9752;54.270;12.470;2023-02-04T23:40:14;104329.41;;;-4.34;100.00
19236;BME280;9752;54.270;12.470;2023-02-04T23:45:17;104313.34;;;-4.39;100.00
19236;BME280;9752;54.270;12.470;2023-02-04T23:50:19;104298.28;;;-4.43;100.00
19236;BME280;9752;54.270;12.470;2023-02-04T23:55:20;104298.13;;;-4.48;100.00
